Terminal Aerodrome Forecast
Issued by NWS

Current Version | Previous Version | Text Only | Print | Product List | Glossary Off
Versions: 1 2 3 4 5 6 7 8 9 10 11 12 13 14 15 16 17 18 19 20 21 22 23 24 25

000
FTUS41 KRLX 161700 RRA
TAFCKB
TAF
KCKB 161745Z 1618/1718 24012G24KT 6SM -SHRA BKN025 OVC035
     FM162100 25012G21KT P6SM OVC025
     FM162300 24011G19KT 6SM -DZ BR OVC015
     FM170600 24009KT 6SM -DZ BR BKN008 OVC015
     FM171500 25010G18KT P6SM OVC014=

USA.gov is the U.S. government's official web portal to all federal, state and local government web resources and services.